createdAt,value
2023-02-21T00:04:14.210Z,2.60
2023-02-21T00:07:06.159Z,1.80
2023-02-21T00:09:58.775Z,2.30
2023-02-21T00:12:49.276Z,4.70
2023-02-21T00:18:28.626Z,2.30
2023-02-21T00:21:19.244Z,2.60
2023-02-21T00:26:58.460Z,2.80
2023-02-21T00:29:48.866Z,3.90
2023-02-21T00:32:39.302Z,3.70
2023-02-21T00:35:29.868Z,2.90
2023-02-21T00:38:20.366Z,2.30
2023-02-21T00:41:10.924Z,3.90
2023-02-21T00:44:01.582Z,3.90
2023-02-21T00:49:40.824Z,4.70
2023-02-21T00:52:31.443Z,2.70
2023-02-21T00:58:10.380Z,5.10
2023-02-21T01:01:00.931Z,3.10
2023-02-21T01:06:42.556Z,4.90
2023-02-21T01:09:33.250Z,4.00
2023-02-21T01:12:24.060Z,4.30
2023-02-21T01:15:14.686Z,6.20
2023-02-21T01:18:05.355Z,3.20
2023-02-21T01:20:55.901Z,7.10
2023-02-21T01:26:35.121Z,6.20
2023-02-21T01:29:25.924Z,3.40
2023-02-21T01:32:16.496Z,5.60
2023-02-21T01:35:06.988Z,4.60
2023-02-21T01:37:58.018Z,4.50
2023-02-21T01:40:48.595Z,5.60
2023-02-21T01:46:32.100Z,5.30
2023-02-21T01:49:26.884Z,3.60
2023-02-21T01:52:19.178Z,5.20
2023-02-21T01:55:14.897Z,3.20
2023-02-21T01:58:06.469Z,5.30
2023-02-21T02:00:57.228Z,4.10
2023-02-21T02:03:48.220Z,5.10
2023-02-21T02:06:38.503Z,3.60
2023-02-21T02:09:40.570Z,4.40
2023-02-21T02:12:37.636Z,4.60
2023-02-21T02:15:32.978Z,3.90
2023-02-21T02:18:36.998Z,8.10
2023-02-21T02:21:49.257Z,5.90
2023-02-21T02:24:55.297Z,3.70
2023-02-21T02:27:55.163Z,2.20
2023-02-21T02:30:54.473Z,3.20
2023-02-21T02:34:08.104Z,2.80
2023-02-21T02:36:45.241Z,3.20
2023-02-21T02:39:27.970Z,2.70
2023-02-21T02:42:11.326Z,2.80
2023-02-21T02:44:51.641Z,2.70
2023-02-21T02:47:30.288Z,3.10
2023-02-21T02:50:05.251Z,3.00
2023-02-21T02:52:40.107Z,4.00
2023-02-21T02:55:37.611Z,5.40
2023-02-21T02:58:12.262Z,3.10
2023-02-21T03:00:55.230Z,2.80
2023-02-21T03:03:47.379Z,2.60
2023-02-21T03:06:32.955Z,4.60
2023-02-21T03:09:15.047Z,6.20
2023-02-21T03:11:57.535Z,2.70
2023-02-21T03:14:37.844Z,2.20
2023-02-21T03:17:14.872Z,2.90
2023-02-21T03:19:51.994Z,2.10
2023-02-21T03:22:30.855Z,1.70
2023-02-21T03:25:05.705Z,2.30
2023-02-21T03:27:40.649Z,5.90
2023-02-21T03:30:26.301Z,1.80
2023-02-21T03:33:00.238Z,2.70
2023-02-21T03:35:34.750Z,3.00
2023-02-21T03:38:07.856Z,2.00
2023-02-21T03:40:41.468Z,2.20
2023-02-21T03:43:14.581Z,2.30
2023-02-21T03:48:31.873Z,3.50
2023-02-21T03:51:16.997Z,3.60
2023-02-21T03:53:50.152Z,2.20
2023-02-21T03:56:28.105Z,3.20
2023-02-21T03:59:20.949Z,3.60
2023-02-21T04:01:54.032Z,2.70
2023-02-21T04:04:27.794Z,4.60
2023-02-21T04:07:11.227Z,4.40
2023-02-21T04:09:44.783Z,3.80
2023-02-21T04:12:21.851Z,3.70
2023-02-21T04:14:56.675Z,3.40
2023-02-21T04:17:29.968Z,4.40
2023-02-21T04:20:04.600Z,3.40
2023-02-21T04:22:41.953Z,6.20
2023-02-21T04:25:16.193Z,4.70
2023-02-21T04:27:55.148Z,4.70
2023-02-21T04:30:28.150Z,7.80
2023-02-21T04:33:01.267Z,5.90
2023-02-21T04:35:34.452Z,6.40
2023-02-21T04:38:13.054Z,5.60
2023-02-21T04:40:46.450Z,3.70
2023-02-21T04:43:21.308Z,5.60
2023-02-21T04:45:54.337Z,3.60
2023-02-21T04:48:27.844Z,4.30
2023-02-21T04:51:14.746Z,4.10
2023-02-21T04:53:50.198Z,5.00
2023-02-21T04:56:27.683Z,4.70
2023-02-21T04:59:01.093Z,5.30
2023-02-21T05:01:35.102Z,4.20
2023-02-21T05:04:08.693Z,6.10
2023-02-21T05:06:41.690Z,4.30
2023-02-21T05:09:14.789Z,5.50
2023-02-21T05:11:47.814Z,5.20
2023-02-21T05:14:21.270Z,4.40
2023-02-21T05:16:54.649Z,4.80
2023-02-21T05:19:28.542Z,11.20
2023-02-21T05:22:07.335Z,6.90
2023-02-21T05:24:44.140Z,6.60
2023-02-21T05:27:17.555Z,5.40
2023-02-21T05:29:53.493Z,6.20
2023-02-21T05:32:29.796Z,8.90
2023-02-21T05:35:02.888Z,7.30
2023-02-21T05:37:36.088Z,6.00
2023-02-21T05:40:12.201Z,7.80
2023-02-21T05:42:45.600Z,6.60
2023-02-21T05:45:19.870Z,6.70
2023-02-21T05:47:56.473Z,6.80
2023-02-21T05:50:29.831Z,5.00
2023-02-21T05:53:03.426Z,5.90
2023-02-21T05:55:36.518Z,10.70
2023-02-21T05:58:09.742Z,7.70
2023-02-21T06:00:43.031Z,7.80
2023-02-21T06:03:16.074Z,5.30
2023-02-21T06:05:49.194Z,5.50
2023-02-21T06:08:22.269Z,6.00
2023-02-21T06:10:55.452Z,7.00
2023-02-21T06:13:28.510Z,5.80
2023-02-21T06:16:01.834Z,6.20
2023-02-21T06:18:34.909Z,5.00
2023-02-21T06:21:08.643Z,5.80
2023-02-21T06:23:41.722Z,5.60
2023-02-21T06:26:16.160Z,5.00
2023-02-21T06:28:49.388Z,8.10
2023-02-21T06:31:23.347Z,5.30
2023-02-21T06:33:56.508Z,4.50
2023-02-21T06:36:31.693Z,7.50
2023-02-21T06:39:04.989Z,6.40
2023-02-21T06:41:38.108Z,5.00
2023-02-21T06:44:11.287Z,6.70
2023-02-21T06:46:44.888Z,4.80
2023-02-21T06:49:18.091Z,7.10
2023-02-21T06:51:51.216Z,10.90
2023-02-21T06:54:25.343Z,7.60
2023-02-21T06:56:59.265Z,6.20
2023-02-21T06:59:32.756Z,5.60
2023-02-21T07:02:06.041Z,6.00
2023-02-21T07:04:39.017Z,6.10
2023-02-21T07:07:12.074Z,6.20
2023-02-21T07:09:45.240Z,4.90
2023-02-21T07:12:18.231Z,5.30
2023-02-21T07:14:51.278Z,4.30
2023-02-21T07:17:24.291Z,6.00
2023-02-21T07:19:57.351Z,4.30
2023-02-21T07:22:30.412Z,4.50
2023-02-21T07:25:03.646Z,5.70
2023-02-21T07:27:36.777Z,4.80
2023-02-21T07:30:11.969Z,4.00
2023-02-21T07:35:17.519Z,4.50
2023-02-21T07:37:50.526Z,4.50
2023-02-21T07:40:23.977Z,6.10
2023-02-21T07:42:57.005Z,5.20
2023-02-21T07:45:30.774Z,4.90
2023-02-21T07:48:03.957Z,6.20
2023-02-21T07:50:37.020Z,7.60
2023-02-21T07:53:11.315Z,7.10
2023-02-21T07:55:44.636Z,6.10
2023-02-21T07:58:19.664Z,4.70
2023-02-21T08:00:55.750Z,7.00
2023-02-21T08:03:28.868Z,5.20
2023-02-21T08:06:02.453Z,6.00
2023-02-21T08:08:35.481Z,6.40
2023-02-21T08:11:09.188Z,5.40
2023-02-21T08:13:42.170Z,6.30
2023-02-21T08:16:15.355Z,5.60
2023-02-21T08:18:50.909Z,5.90
2023-02-21T08:21:23.933Z,5.50
2023-02-21T08:23:58.372Z,6.70
2023-02-21T08:26:31.507Z,4.90
2023-02-21T08:29:05.045Z,5.30
2023-02-21T08:31:41.495Z,4.00
2023-02-21T08:34:15.451Z,4.20
2023-02-21T08:36:48.746Z,4.70
2023-02-21T08:39:21.753Z,3.10
2023-02-21T08:41:54.878Z,4.40
2023-02-21T08:44:27.864Z,4.20
2023-02-21T08:47:00.954Z,4.20
2023-02-21T08:49:34.015Z,5.90
2023-02-21T08:52:07.189Z,3.10
2023-02-21T08:54:40.289Z,3.40
2023-02-21T08:57:13.850Z,3.50
2023-02-21T08:59:47.531Z,3.60
2023-02-21T09:02:26.330Z,3.60
2023-02-21T09:04:59.750Z,2.40
2023-02-21T09:07:33.659Z,2.90
2023-02-21T09:10:10.456Z,2.20
2023-02-21T09:12:43.966Z,2.90
2023-02-21T09:15:19.437Z,3.30
2023-02-21T09:17:54.739Z,4.20
2023-02-21T09:20:29.177Z,3.20
2023-02-21T09:23:02.214Z,5.20
2023-02-21T09:25:35.354Z,3.40
2023-02-21T09:28:08.491Z,5.40
2023-02-21T09:30:41.748Z,2.30
2023-02-21T09:33:16.204Z,2.30
2023-02-21T09:35:51.052Z,3.30
2023-02-21T09:38:24.086Z,2.00
2023-02-21T09:41:02.893Z,2.70
2023-02-21T09:43:38.252Z,1.70
2023-02-21T09:46:16.486Z,2.00
2023-02-21T09:48:50.841Z,1.60
2023-02-21T09:51:25.288Z,1.60
2023-02-21T09:54:02.038Z,1.60
2023-02-21T09:56:40.195Z,1.50
2023-02-21T09:59:17.170Z,1.40
2023-02-21T10:02:04.746Z,1.40
2023-02-21T10:04:55.276Z,1.40
2023-02-21T10:07:42.566Z,1.50
2023-02-21T10:10:19.823Z,2.10
2023-02-21T10:12:59.855Z,1.50
2023-02-21T10:15:46.682Z,1.30
2023-02-21T10:18:34.906Z,1.50
2023-02-21T10:21:18.162Z,1.30
2023-02-21T10:23:58.000Z,1.30
2023-02-21T10:26:33.631Z,1.40
2023-02-21T10:29:13.420Z,1.70
2023-02-21T10:31:48.783Z,1.40
2023-02-21T10:34:28.646Z,3.30
2023-02-21T10:37:14.350Z,1.70
2023-02-21T10:39:54.453Z,1.80
2023-02-21T10:42:37.632Z,1.40
2023-02-21T10:45:13.378Z,1.60
2023-02-21T10:47:55.134Z,1.20
2023-02-21T10:50:45.398Z,3.10
2023-02-21T10:56:28.395Z,3.10
2023-02-21T10:59:07.270Z,3.30
2023-02-21T11:01:46.257Z,1.40
2023-02-21T11:04:35.715Z,1.20
2023-02-21T11:07:12.361Z,1.30
2023-02-21T11:09:47.145Z,1.10
2023-02-21T11:12:31.297Z,1.40
2023-02-21T11:15:23.706Z,2.20
2023-02-21T11:18:13.608Z,10.10
2023-02-21T11:20:50.376Z,11.60
2023-02-21T11:23:31.667Z,3.10
2023-02-21T11:26:11.617Z,8.90
2023-02-21T11:28:46.466Z,9.80
2023-02-21T11:31:29.657Z,9.60
2023-02-21T11:34:07.279Z,14.50
2023-02-21T11:36:43.661Z,14.40
2023-02-21T11:39:28.037Z,14.30
2023-02-21T11:42:05.021Z,24.80
2023-02-21T11:44:40.665Z,6.60
2023-02-21T11:47:23.568Z,7.80
2023-02-21T11:50:03.058Z,13.50
2023-02-21T11:52:42.226Z,7.50
2023-02-21T11:55:21.891Z,10.10
2023-02-21T11:58:05.530Z,5.50
2023-02-21T12:01:01.963Z,4.40
2023-02-21T12:04:01.414Z,6.00
2023-02-21T12:06:43.625Z,6.50
2023-02-21T12:09:22.027Z,5.50
2023-02-21T12:12:11.644Z,8.60
2023-02-21T12:15:02.550Z,5.80
2023-02-21T12:18:06.811Z,4.90
2023-02-21T12:21:09.104Z,3.20
2023-02-21T12:23:54.373Z,7.00
2023-02-21T12:26:51.592Z,5.80
2023-02-21T12:29:47.377Z,5.00
2023-02-21T12:32:46.122Z,7.20
2023-02-21T12:36:12.543Z,2.70
2023-02-21T12:39:02.123Z,3.80
2023-02-21T12:42:07.218Z,4.80
2023-02-21T12:44:51.961Z,2.80
2023-02-21T12:47:32.026Z,2.90
2023-02-21T12:50:14.674Z,1.60
2023-02-21T12:52:58.532Z,1.70
2023-02-21T12:55:35.319Z,3.50
2023-02-21T12:58:16.438Z,3.40
2023-02-21T13:00:55.773Z,1.80
2023-02-21T13:03:43.719Z,3.10
2023-02-21T13:06:23.809Z,1.80
2023-02-21T13:09:12.720Z,2.20
2023-02-21T13:11:56.516Z,3.90
2023-02-21T13:14:35.513Z,1.40
2023-02-21T13:17:16.400Z,2.00
2023-02-21T13:19:54.747Z,2.10
2023-02-21T13:23:20.108Z,3.40
2023-02-21T13:26:41.722Z,1.50
2023-02-21T13:29:22.997Z,1.80
2023-02-21T13:32:03.999Z,3.60
2023-02-21T13:34:45.679Z,0.90
2023-02-21T13:37:23.755Z,1.20
2023-02-21T13:40:07.659Z,1.50
2023-02-21T13:42:42.021Z,2.60
2023-02-21T13:45:24.741Z,1.40
2023-02-21T13:48:29.177Z,1.40
2023-02-21T13:51:03.678Z,1.00
2023-02-21T13:54:10.361Z,1.80
2023-02-21T13:56:49.726Z,1.00
2023-02-21T13:59:39.202Z,1.30
2023-02-21T14:02:33.070Z,3.00
2023-02-21T14:05:11.054Z,1.30
2023-02-21T14:07:58.420Z,1.80
2023-02-21T14:10:47.944Z,6.40
2023-02-21T14:13:32.151Z,2.00
2023-02-21T14:16:18.666Z,3.30
2023-02-21T14:18:54.086Z,2.40
2023-02-21T14:21:35.326Z,1.90
2023-02-21T14:24:17.783Z,1.80
2023-02-21T14:26:56.967Z,1.80
2023-02-21T14:29:42.491Z,0.90
2023-02-21T14:32:34.911Z,1.00
2023-02-21T14:35:29.277Z,1.90
2023-02-21T14:38:08.843Z,1.00
2023-02-21T14:41:04.389Z,1.10
2023-02-21T14:43:58.995Z,3.40
2023-02-21T14:46:57.987Z,1.10
2023-02-21T14:50:22.483Z,1.30
2023-02-21T14:53:22.694Z,0.90
2023-02-21T14:56:26.343Z,5.40
2023-02-21T14:59:21.880Z,1.10
2023-02-21T15:02:18.673Z,4.30
2023-02-21T15:05:01.319Z,1.10
2023-02-21T15:07:57.998Z,1.50
2023-02-21T15:10:33.410Z,1.30
2023-02-21T15:13:07.661Z,2.90
2023-02-21T15:15:43.549Z,1.70
2023-02-21T15:18:28.507Z,2.00
2023-02-21T15:21:18.641Z,3.00
2023-02-21T15:24:04.092Z,3.30
2023-02-21T15:26:37.165Z,4.80
2023-02-21T15:29:13.717Z,4.80
2023-02-21T15:31:50.341Z,1.90
2023-02-21T15:34:27.822Z,2.50
2023-02-21T15:37:07.817Z,2.30
2023-02-21T15:39:44.047Z,1.40
2023-02-21T15:42:19.521Z,2.70
2023-02-21T15:44:57.654Z,1.80
2023-02-21T15:47:34.281Z,3.20
2023-02-21T15:50:13.104Z,3.30
2023-02-21T15:52:51.710Z,4.60
2023-02-21T15:55:41.518Z,7.10
2023-02-21T15:58:26.955Z,3.50
2023-02-21T16:01:11.741Z,8.00
2023-02-21T16:03:47.093Z,12.50
2023-02-21T16:06:29.312Z,7.00
2023-02-21T16:09:06.758Z,6.90
2023-02-21T16:11:53.015Z,7.70
2023-02-21T16:14:39.925Z,6.40
2023-02-21T16:17:28.538Z,6.40
2023-02-21T16:20:13.364Z,5.80
2023-02-21T16:26:03.842Z,3.80
2023-02-21T16:28:37.501Z,5.90
2023-02-21T16:31:16.689Z,5.20
2023-02-21T16:33:53.120Z,7.80
2023-02-21T16:36:29.020Z,9.40
2023-02-21T16:39:02.526Z,7.40
2023-02-21T16:41:35.610Z,15.90
2023-02-21T16:44:08.585Z,8.00
2023-02-21T16:46:42.017Z,10.70
2023-02-21T16:49:15.468Z,8.00
2023-02-21T16:51:48.591Z,8.60
2023-02-21T16:54:21.854Z,15.30
2023-02-21T16:56:56.286Z,10.20
2023-02-21T16:59:29.389Z,13.90
2023-02-21T17:02:05.010Z,11.20
2023-02-21T17:04:38.118Z,16.00
2023-02-21T17:07:11.950Z,9.20
2023-02-21T17:09:44.940Z,8.60
2023-02-21T17:12:18.218Z,9.70
2023-02-21T17:14:51.229Z,7.30
2023-02-21T17:17:24.283Z,9.90
2023-02-21T17:19:57.606Z,10.00
2023-02-21T17:22:30.569Z,20.70
2023-02-21T17:25:03.835Z,10.90
2023-02-21T17:27:37.138Z,13.20
2023-02-21T17:30:12.969Z,30.20
2023-02-21T17:32:47.168Z,20.50
2023-02-21T17:35:22.704Z,23.40
2023-02-21T17:37:55.888Z,30.50
2023-02-21T17:40:29.259Z,17.60
2023-02-21T17:43:07.820Z,18.70
2023-02-21T17:45:40.903Z,19.80
2023-02-21T17:48:13.949Z,12.60
2023-02-21T17:50:47.059Z,16.40
2023-02-21T17:53:20.183Z,14.70
2023-02-21T17:55:53.237Z,18.80
2023-02-21T17:58:26.167Z,18.20
2023-02-21T18:01:00.089Z,16.60
2023-02-21T18:03:33.117Z,20.90
2023-02-21T18:06:06.644Z,18.60
2023-02-21T18:08:39.699Z,19.90
2023-02-21T18:11:16.648Z,20.80
2023-02-21T18:13:49.952Z,21.80
2023-02-21T18:16:23.278Z,25.90
2023-02-21T18:18:56.405Z,18.10
2023-02-21T18:21:29.623Z,21.60
2023-02-21T18:24:02.871Z,15.60
2023-02-21T18:26:36.166Z,12.60
2023-02-21T18:29:10.120Z,19.00
2023-02-21T18:31:43.189Z,25.20
2023-02-21T18:34:16.280Z,20.40
2023-02-21T18:36:54.436Z,23.10
2023-02-21T18:39:28.649Z,19.80
2023-02-21T18:42:01.845Z,19.00
2023-02-21T18:44:35.723Z,18.50
2023-02-21T18:47:08.969Z,20.10
2023-02-21T18:49:44.173Z,21.90
2023-02-21T18:52:18.295Z,19.20
2023-02-21T18:54:52.566Z,24.80
2023-02-21T18:57:26.582Z,20.30
2023-02-21T19:00:00.116Z,25.70
2023-02-21T19:02:34.601Z,23.40
2023-02-21T19:05:09.798Z,27.70
2023-02-21T19:07:45.113Z,28.90
2023-02-21T19:10:22.540Z,30.30
2023-02-21T19:12:55.692Z,35.00
2023-02-21T19:15:29.487Z,30.40
2023-02-21T19:18:02.981Z,30.40
2023-02-21T19:20:37.030Z,35.80
2023-02-21T19:23:10.624Z,35.10
2023-02-21T19:25:43.824Z,30.40
2023-02-21T19:28:16.845Z,26.70
2023-02-21T19:30:49.935Z,20.40
2023-02-21T19:33:24.814Z,22.70
2023-02-21T19:35:57.867Z,23.80
2023-02-21T19:38:30.882Z,26.70
2023-02-21T19:41:05.492Z,28.40
2023-02-21T19:43:38.706Z,23.30
2023-02-21T19:46:21.956Z,20.20
2023-02-21T19:48:56.726Z,26.90
2023-02-21T19:51:32.723Z,29.40
2023-02-21T19:54:06.273Z,26.30
2023-02-21T19:56:39.641Z,24.80
2023-02-21T19:59:13.449Z,22.10
2023-02-21T20:01:46.773Z,24.00
2023-02-21T20:04:19.946Z,21.50
2023-02-21T20:06:53.042Z,26.00
2023-02-21T20:09:26.270Z,30.30
2023-02-21T20:11:59.515Z,23.60
2023-02-21T20:14:32.762Z,29.80
2023-02-21T20:17:05.921Z,26.00
2023-02-21T20:19:38.941Z,24.50
2023-02-21T20:22:12.003Z,25.20
2023-02-21T20:24:45.956Z,19.80
2023-02-21T20:27:19.443Z,17.90
2023-02-21T20:29:52.608Z,25.50
2023-02-21T20:32:26.081Z,21.60
2023-02-21T20:34:59.175Z,22.40
2023-02-21T20:37:32.744Z,19.80
2023-02-21T20:40:10.457Z,17.00
2023-02-21T20:42:44.157Z,17.50
2023-02-21T20:45:18.773Z,19.90
2023-02-21T20:47:52.410Z,23.20
2023-02-21T20:50:26.690Z,25.20
2023-02-21T20:52:59.682Z,16.00
2023-02-21T20:55:32.624Z,21.60
2023-02-21T20:58:06.015Z,17.40
2023-02-21T21:00:39.199Z,24.20
2023-02-21T21:03:15.366Z,21.00
2023-02-21T21:05:50.804Z,21.00
2023-02-21T21:08:23.994Z,18.00
2023-02-21T21:10:57.604Z,17.80
2023-02-21T21:13:30.697Z,15.30
2023-02-21T21:16:05.289Z,23.90
2023-02-21T21:18:38.539Z,23.00
2023-02-21T21:21:11.999Z,20.10
2023-02-21T21:23:45.190Z,20.20
2023-02-21T21:26:18.622Z,15.30
2023-02-21T21:28:52.330Z,20.50
2023-02-21T21:31:25.516Z,20.00
2023-02-21T21:33:58.613Z,15.40
2023-02-21T21:36:31.632Z,24.10
2023-02-21T21:39:05.123Z,22.70
2023-02-21T21:41:38.869Z,16.70
2023-02-21T21:44:12.505Z,20.40
2023-02-21T21:46:51.287Z,23.30
2023-02-21T21:49:27.296Z,19.60
2023-02-21T21:52:00.599Z,21.30
2023-02-21T21:54:36.359Z,19.00
2023-02-21T21:57:10.979Z,20.80
2023-02-21T21:59:44.371Z,20.10
2023-02-21T22:02:17.730Z,23.00
2023-02-21T22:04:53.496Z,20.10
2023-02-21T22:07:26.587Z,21.50
2023-02-21T22:09:59.691Z,17.80
2023-02-21T22:12:32.851Z,27.00
2023-02-21T22:15:06.764Z,21.20
2023-02-21T22:17:41.417Z,28.70
2023-02-21T22:20:19.428Z,22.30
2023-02-21T22:22:57.184Z,24.20
2023-02-21T22:25:32.167Z,18.70
2023-02-21T22:28:09.772Z,21.50
2023-02-21T22:30:43.378Z,25.20
2023-02-21T22:33:22.678Z,21.60
2023-02-21T22:35:55.735Z,22.80
2023-02-21T22:38:29.034Z,23.90
2023-02-21T22:41:02.043Z,23.60
2023-02-21T22:43:35.337Z,23.10
2023-02-21T22:46:08.757Z,28.10
2023-02-21T22:48:41.852Z,23.80
2023-02-21T22:51:16.644Z,25.50
2023-02-21T22:53:52.439Z,24.40
2023-02-21T22:56:28.668Z,31.40
2023-02-21T22:59:02.139Z,23.10
2023-02-21T23:01:35.472Z,20.40
2023-02-21T23:04:26.040Z,23.00
2023-02-21T23:07:01.345Z,23.90
2023-02-21T23:09:37.158Z,20.20
2023-02-21T23:12:13.323Z,27.20
2023-02-21T23:14:48.280Z,25.10
2023-02-21T23:17:21.269Z,23.60
2023-02-21T23:19:54.646Z,28.20
2023-02-21T23:22:28.032Z,26.10
2023-02-21T23:25:01.146Z,17.40
2023-02-21T23:27:34.146Z,24.10
2023-02-21T23:30:08.655Z,23.20
2023-02-21T23:32:41.742Z,22.20
2023-02-21T23:35:16.459Z,18.80
2023-02-21T23:37:53.415Z,21.30
2023-02-21T23:40:28.412Z,22.90
2023-02-21T23:43:01.392Z,23.10
2023-02-21T23:45:34.418Z,24.70
2023-02-21T23:48:09.445Z,17.10
2023-02-21T23:50:45.275Z,27.50
2023-02-21T23:53:22.804Z,21.20
2023-02-21T23:56:00.787Z,25.40
2023-02-21T23:58:34.488Z,23.00
